Time;durP1;ratioP1;P1;durP2;ratioP2;P2;SDS_P1;SDS_P2;PMS_P1;PMS_P2;Temp;Humidity;BMP_temperature;BMP_pressure;BME280_temperature;BME280_humidity;BME280_pressure;Samples;Min_cycle;Max_cycle;Signal;HPM_P1;HPM_P2
2021/05/31 00:01:31;;;;;;;;;;;8.60;77.30;;;;;;5095758;28;19923;-70
2021/05/31 00:03:56;;;;;;;;;;;8.50;77.40;;;;;;5094212;28;19912;-69
2021/05/31 00:06:22;;;;;;;;;;;8.50;77.60;;;;;;5096254;28;19966;-69
2021/05/31 00:08:48;;;;;;;;;;;8.50;77.60;;;;;;5095785;28;19912;-69
2021/05/31 00:11:14;;;;;;;;;;;8.50;77.60;;;;;;5090677;28;19919;-69
2021/05/31 00:13:39;;;;;;;;;;;8.40;77.50;;;;;;5085245;28;19912;-69
2021/05/31 00:16:05;;;;;;;;;;;8.30;78.60;;;;;;5092003;28;20046;-69
2021/05/31 00:18:31;;;;;;;;;;;8.20;78.70;;;;;;5073645;28;19912;-69
2021/05/31 00:20:56;;;;;;;;;;;8.20;78.60;;;;;;5068269;28;19919;-69
2021/05/31 00:23:22;;;;;;;;;;;8.20;78.50;;;;;;5093306;28;19940;-68
2021/05/31 00:25:47;;;;;;;;;;;8.20;78.60;;;;;;5095422;28;20007;-69
2021/05/31 00:28:13;;;;;;;;;;;8.20;78.90;;;;;;5092036;28;19947;-69
2021/05/31 00:30:40;;;;;;;;;;;8.10;79.10;;;;;;5079095;28;20564;-70
2021/05/31 00:33:05;;;;;;;;;;;8.10;79.20;;;;;;5065734;28;19930;-70
2021/05/31 00:35:31;;;;;;;;;;;8.00;79.30;;;;;;5081989;28;19920;-70
2021/05/31 00:37:56;;;;;;;;;;;7.90;79.50;;;;;;5083485;28;19927;-69
2021/05/31 00:40:23;;;;;;;;;;;7.80;80.30;;;;;;5059110;28;19931;-70
2021/05/31 00:42:48;;;;;;;;;;;7.80;80.70;;;;;;5080454;28;19924;-70
2021/05/31 00:45:14;;;;;;;;;;;7.80;80.90;;;;;;5082777;28;19928;-70
2021/05/31 00:47:40;;;;;;;;;;;7.80;80.50;;;;;;5076270;28;19924;-70
2021/05/31 00:50:06;;;;;;;;;;;7.70;80.70;;;;;;5065836;28;19943;-70
2021/05/31 00:52:31;;;;;;;;;;;7.70;80.70;;;;;;5079310;28;19966;-69
2021/05/31 00:54:57;;;;;;;;;;;7.70;82.30;;;;;;5081242;28;20273;-69
2021/05/31 00:57:23;;;;;;;;;;;7.70;81.30;;;;;;5081432;28;19912;-70
2021/05/31 00:59:49;;;;;;;;;;;7.80;80.60;;;;;;5086130;28;19912;-70
2021/05/31 01:02:17;;;;;;;;;;;7.90;80.60;;;;;;5089531;28;19935;-70
2021/05/31 01:04:43;;;;;;;;;;;8.00;79.80;;;;;;5077092;28;20280;-70
2021/05/31 01:07:21;;;;;;;;;;;8.00;80.00;;;;;;5074708;28;19959;-70
2021/05/31 01:09:46;;;;;;;;;;;8.00;80.00;;;;;;5077447;28;20227;-69
2021/05/31 01:12:26;;;;;;;;;;;8.10;79.90;;;;;;5079178;28;19912;-69
2021/05/31 01:15:14;;;;;;;;;;;8.00;80.20;;;;;;5075696;28;19924;-70
2021/05/31 01:17:52;;;;;;;;;;;7.90;80.50;;;;;;5070233;28;20344;-70
2021/05/31 01:20:41;;;;;;;;;;;8.20;79.20;;;;;;5069849;28;19919;-70
2021/05/31 01:23:10;;;;;;;;;;;8.30;78.80;;;;;;5027885;28;19947;-69
2021/05/31 01:25:39;;;;;;;;;;;8.30;79.00;;;;;;5070533;28;19924;-69
2021/05/31 01:28:14;;;;;;;;;;;8.30;79.30;;;;;;5070689;28;19912;-70
2021/05/31 01:30:42;;;;;;;;;;;8.30;79.00;;;;;;5074487;28;19923;-70
2021/05/31 01:33:09;;;;;;;;;;;8.40;78.70;;;;;;5070627;28;19920;-70
2021/05/31 01:35:35;;;;;;;;;;;8.50;78.40;;;;;;5069264;28;19931;-70
2021/05/31 01:38:03;;;;;;;;;;;8.60;78.30;;;;;;5069609;28;20244;-69
2021/05/31 01:40:29;;;;;;;;;;;8.60;77.90;;;;;;5069955;28;20003;-70
2021/05/31 01:42:56;;;;;;;;;;;8.60;77.90;;;;;;5070011;28;19921;-69
2021/05/31 01:45:22;;;;;;;;;;;8.60;77.60;;;;;;5072008;28;19913;-70
2021/05/31 01:47:48;;;;;;;;;;;8.70;77.70;;;;;;5070800;28;19946;-70
2021/05/31 01:50:14;;;;;;;;;;;8.70;77.70;;;;;;5071135;28;19924;-69
2021/05/31 01:52:43;;;;;;;;;;;8.60;77.70;;;;;;5070126;28;19918;-70
2021/05/31 01:55:09;;;;;;;;;;;8.70;77.70;;;;;;5070130;28;19938;-70
2021/05/31 01:57:36;;;;;;;;;;;8.60;77.60;;;;;;5069735;28;19920;-70
2021/05/31 02:00:03;;;;;;;;;;;8.60;77.70;;;;;;5069146;28;19966;-70
2021/05/31 02:02:29;;;;;;;;;;;8.70;77.50;;;;;;5070245;28;20275;-70
2021/05/31 02:04:55;;;;;;;;;;;8.70;77.30;;;;;;5070844;28;19938;-69
2021/05/31 02:07:20;;;;;;;;;;;8.70;77.40;;;;;;5054468;28;19970;-70
2021/05/31 02:09:46;;;;;;;;;;;8.70;77.50;;;;;;5073508;28;19970;-70
2021/05/31 02:12:12;;;;;;;;;;;8.60;77.70;;;;;;5074088;28;20279;-70
2021/05/31 02:14:44;;;;;;;;;;;8.60;77.80;;;;;;5074709;28;19916;-71
2021/05/31 02:17:16;;;;;;;;;;;8.40;78.70;;;;;;5085172;28;19912;-70
2021/05/31 02:19:43;;;;;;;;;;;8.30;79.10;;;;;;5083313;28;19920;-70
2021/05/31 02:22:10;;;;;;;;;;;8.30;79.20;;;;;;5081352;28;20282;-70
2021/05/31 02:24:39;;;;;;;;;;;8.30;79.00;;;;;;5088090;28;19920;-70
2021/05/31 02:27:05;;;;;;;;;;;8.40;78.50;;;;;;5063970;28;20006;-70
2021/05/31 02:29:31;;;;;;;;;;;8.40;78.60;;;;;;5079129;28;20018;-70
2021/05/31 02:31:57;;;;;;;;;;;8.50;78.20;;;;;;5091324;28;20213;-71
2021/05/31 02:34:40;;;;;;;;;;;8.50;78.30;;;;;;5091343;28;19924;-70
2021/05/31 02:37:07;;;;;;;;;;;8.40;78.50;;;;;;5090014;28;19924;-71
2021/05/31 02:39:32;;;;;;;;;;;8.50;78.30;;;;;;5083819;28;19946;-70
2021/05/31 02:41:59;;;;;;;;;;;8.50;78.20;;;;;;5084669;28;19928;-70
2021/05/31 02:44:25;;;;;;;;;;;8.40;78.50;;;;;;5083669;28;20015;-70
2021/05/31 02:46:50;;;;;;;;;;;8.30;78.60;;;;;;5083778;28;20237;-70
2021/05/31 02:49:16;;;;;;;;;;;8.20;79.00;;;;;;5079210;28;19951;-70
2021/05/31 02:51:43;;;;;;;;;;;8.00;80.40;;;;;;5084545;28;19920;-70
2021/05/31 02:54:09;;;;;;;;;;;7.80;80.90;;;;;;5083260;28;19952;-70
2021/05/31 02:56:35;;;;;;;;;;;7.90;80.30;;;;;;5094168;28;19935;-70
2021/05/31 02:59:00;;;;;;;;;;;7.90;80.40;;;;;;5086583;28;19999;-70
2021/05/31 03:01:26;;;;;;;;;;;7.90;79.90;;;;;;5083624;28;20007;-70
2021/05/31 03:03:51;;;;;;;;;;;7.90;80.60;;;;;;5087826;28;20002;-70
2021/05/31 03:06:17;;;;;;;;;;;7.90;80.30;;;;;;5084594;28;19920;-70
2021/05/31 03:08:42;;;;;;;;;;;7.90;80.30;;;;;;5085989;28;20015;-70
2021/05/31 03:11:08;;;;;;;;;;;8.00;80.10;;;;;;5062792;28;19919;-70
2021/05/31 03:13:33;;;;;;;;;;;8.00;80.00;;;;;;5084718;28;19928;-71
2021/05/31 03:15:59;;;;;;;;;;;8.00;80.00;;;;;;5072398;28;19975;-71
2021/05/31 03:18:24;;;;;;;;;;;8.00;80.10;;;;;;5072180;28;19921;-71
2021/05/31 03:20:50;;;;;;;;;;;7.90;80.60;;;;;;5053281;28;19916;-71
2021/05/31 03:23:16;;;;;;;;;;;7.80;81.50;;;;;;5072107;28;19912;-70
2021/05/31 03:25:41;;;;;;;;;;;7.60;81.80;;;;;;5073257;28;20313;-71
2021/05/31 03:28:07;;;;;;;;;;;7.40;81.90;;;;;;5072661;28;19927;-70
2021/05/31 03:30:33;;;;;;;;;;;7.50;81.80;;;;;;5072145;28;19921;-70
2021/05/31 03:32:58;;;;;;;;;;;7.40;81.50;;;;;;5072085;28;19921;-70
2021/05/31 03:35:25;;;;;;;;;;;7.40;82.70;;;;;;5056565;28;19912;-71
2021/05/31 03:37:50;;;;;;;;;;;7.20;84.60;;;;;;5072309;28;19939;-69
2021/05/31 03:40:21;;;;;;;;;;;7.20;83.80;;;;;;5072075;28;19921;-70
2021/05/31 03:42:46;;;;;;;;;;;7.20;83.50;;;;;;5071934;28;19920;-69
2021/05/31 03:45:12;;;;;;;;;;;7.40;82.80;;;;;;5053958;28;19920;-70
2021/05/31 03:47:37;;;;;;;;;;;7.60;81.90;;;;;;5071970;28;19921;-70
2021/05/31 03:50:04;;;;;;;;;;;7.60;81.70;;;;;;5071481;28;20059;-70
2021/05/31 03:52:29;;;;;;;;;;;7.70;81.50;;;;;;5070755;28;19921;-70
2021/05/31 03:54:55;;;;;;;;;;;7.80;80.70;;;;;;5055379;28;19932;-71
2021/05/31 03:57:20;;;;;;;;;;;7.80;80.30;;;;;;5071555;28;19912;-70
2021/05/31 03:59:48;;;;;;;;;;;7.80;80.10;;;;;;5072685;28;19920;-70
2021/05/31 04:02:14;;;;;;;;;;;7.90;79.50;;;;;;5072078;28;19952;-70
2021/05/31 04:04:45;;;;;;;;;;;7.90;80.40;;;;;;5077520;28;20382;-70
2021/05/31 04:12:28;;;;;;;;;;;7.80;79.90;;;;;;5076358;28;20024;-70
2021/05/31 04:14:54;;;;;;;;;;;7.80;78.50;;;;;;5076869;28;19924;-70
2021/05/31 04:17:20;;;;;;;;;;;8.00;77.90;;;;;;5075535;28;19916;-69
2021/05/31 04:19:45;;;;;;;;;;;8.10;77.50;;;;;;5088938;28;19912;-69
2021/05/31 04:22:11;;;;;;;;;;;8.30;76.70;;;;;;5093865;28;19923;-70
2021/05/31 04:24:36;;;;;;;;;;;8.40;76.20;;;;;;5085981;28;19921;-69
2021/05/31 04:27:02;;;;;;;;;;;8.50;76.30;;;;;;5085670;28;19973;-70
2021/05/31 04:29:27;;;;;;;;;;;8.60;75.70;;;;;;5095961;28;20006;-70
2021/05/31 04:31:53;;;;;;;;;;;8.60;75.40;;;;;;5093060;28;19986;-69
2021/05/31 04:34:19;;;;;;;;;;;8.70;75.60;;;;;;5074993;28;20256;-69
2021/05/31 04:36:44;;;;;;;;;;;8.70;75.00;;;;;;5089556;28;19913;-69
2021/05/31 04:39:10;;;;;;;;;;;8.80;75.10;;;;;;5095661;28;20213;-69
2021/05/31 04:41:36;;;;;;;;;;;8.80;75.00;;;;;;5095826;28;20010;-70
2021/05/31 04:44:02;;;;;;;;;;;8.90;74.80;;;;;;5077354;28;19912;-69
2021/05/31 04:46:28;;;;;;;;;;;8.90;74.80;;;;;;5088123;28;20254;-69
2021/05/31 04:48:56;;;;;;;;;;;8.90;75.30;;;;;;5086079;28;19958;-70
2021/05/31 04:51:22;;;;;;;;;;;8.80;75.50;;;;;;5092858;28;19913;-68
2021/05/31 04:53:48;;;;;;;;;;;8.80;75.50;;;;;;5101153;28;20313;-69
2021/05/31 04:56:15;;;;;;;;;;;8.90;75.50;;;;;;5081567;28;19912;-68
2021/05/31 04:58:41;;;;;;;;;;;8.90;75.10;;;;;;5085984;28;20013;-68
2021/05/31 05:01:06;;;;;;;;;;;9.00;75.20;;;;;;5080687;28;20024;-70
2021/05/31 05:03:32;;;;;;;;;;;9.10;74.60;;;;;;5091041;28;19912;-70
2021/05/31 05:05:57;;;;;;;;;;;9.20;74.60;;;;;;5094002;28;19938;-70
2021/05/31 05:08:23;;;;;;;;;;;9.30;74.30;;;;;;5097068;28;19912;-70
2021/05/31 05:10:48;;;;;;;;;;;9.20;75.90;;;;;;5086707;28;19916;-69
2021/05/31 05:13:14;;;;;;;;;;;9.00;78.90;;;;;;5090104;28;20253;-69
2021/05/31 05:15:39;;;;;;;;;;;8.80;80.30;;;;;;5066265;28;20329;-69
2021/05/31 05:18:05;;;;;;;;;;;8.60;81.60;;;;;;5065571;28;19913;-69
2021/05/31 05:20:32;;;;;;;;;;;8.50;81.90;;;;;;5093362;28;19916;-69
2021/05/31 05:22:57;;;;;;;;;;;8.40;82.30;;;;;;5096199;28;19908;-69
2021/05/31 05:25:23;;;;;;;;;;;8.40;83.30;;;;;;5096270;28;20307;-68
2021/05/31 05:27:49;;;;;;;;;;;8.40;83.60;;;;;;5096015;28;19920;-69
2021/05/31 05:30:17;;;;;;;;;;;8.40;84.10;;;;;;5077227;28;19912;-70
2021/05/31 05:32:49;;;;;;;;;;;8.50;83.90;;;;;;5090983;28;19977;-70
2021/05/31 05:35:25;;;;;;;;;;;8.60;84.10;;;;;;5093740;28;19912;-69
2021/05/31 05:47:52;;;;;;;;;;;9.30;81.60;;;;;;5094004;28;19978;-70
2021/05/31 05:50:19;;;;;;;;;;;9.50;81.10;;;;;;5094326;28;19943;-69
2021/05/31 05:52:44;;;;;;;;;;;9.80;76.80;;;;;;5093424;28;20343;-69
2021/05/31 05:55:11;;;;;;;;;;;10.10;78.80;;;;;;5094410;28;19913;-69
2021/05/31 05:57:37;;;;;;;;;;;10.40;76.30;;;;;;5093899;28;19923;-68
2021/05/31 06:00:07;;;;;;;;;;;10.70;74.50;;;;;;5094109;28;19912;-69
2021/05/31 06:02:33;;;;;;;;;;;10.90;75.40;;;;;;5092777;28;19916;-69
2021/05/31 06:04:58;;;;;;;;;;;11.00;74.50;;;;;;5095531;28;19915;-69
2021/05/31 06:07:25;;;;;;;;;;;11.10;77.10;;;;;;5087732;28;19973;-69
2021/05/31 06:09:51;;;;;;;;;;;11.20;74.90;;;;;;5080903;28;19916;-71
2021/05/31 06:12:16;;;;;;;;;;;11.40;74.80;;;;;;5079571;28;20208;-70
2021/05/31 06:14:43;;;;;;;;;;;11.60;74.30;;;;;;5095483;28;20377;-70
2021/05/31 06:17:08;;;;;;;;;;;11.80;74.10;;;;;;5091741;28;19912;-69
2021/05/31 06:19:34;;;;;;;;;;;12.00;73.50;;;;;;5076841;28;19920;-68
2021/05/31 06:22:00;;;;;;;;;;;12.20;72.90;;;;;;5090781;28;19942;-68
2021/05/31 06:24:25;;;;;;;;;;;12.20;73.00;;;;;;5075463;28;19919;-67
2021/05/31 06:26:51;;;;;;;;;;;12.30;72.20;;;;;;5090911;28;19954;-68
2021/05/31 06:29:17;;;;;;;;;;;12.40;72.70;;;;;;5093121;28;20012;-67
2021/05/31 06:31:42;;;;;;;;;;;12.50;72.20;;;;;;5093278;28;19931;-68
2021/05/31 06:34:08;;;;;;;;;;;12.60;72.10;;;;;;5094068;28;19920;-68
2021/05/31 06:36:39;;;;;;;;;;;12.60;72.40;;;;;;5088236;28;20312;-68
2021/05/31 06:39:07;;;;;;;;;;;12.60;71.80;;;;;;5083135;28;19981;-68
2021/05/31 06:41:34;;;;;;;;;;;12.80;72.70;;;;;;5085294;28;19908;-68
2021/05/31 06:43:59;;;;;;;;;;;12.90;71.90;;;;;;5093204;28;20324;-68
2021/05/31 06:46:25;;;;;;;;;;;13.00;71.80;;;;;;5084719;28;19923;-68
2021/05/31 06:48:51;;;;;;;;;;;13.10;72.50;;;;;;5069074;28;19998;-68
2021/05/31 06:51:16;;;;;;;;;;;13.10;71.60;;;;;;5094069;28;20027;-68
2021/05/31 06:53:42;;;;;;;;;;;13.20;71.30;;;;;;5096902;28;20185;-69
2021/05/31 06:56:07;;;;;;;;;;;13.30;70.80;;;;;;5093824;28;19912;-69
2021/05/31 06:58:33;;;;;;;;;;;13.40;70.40;;;;;;5096317;28;19912;-69
2021/05/31 07:00:58;;;;;;;;;;;13.50;69.10;;;;;;5098277;28;19999;-68
2021/05/31 07:03:24;;;;;;;;;;;13.60;69.10;;;;;;5089952;28;20018;-70
2021/05/31 07:05:49;;;;;;;;;;;13.60;68.50;;;;;;5099286;28;19969;-68
2021/05/31 07:08:15;;;;;;;;;;;13.60;67.90;;;;;;5098032;28;19911;-71
2021/05/31 07:10:41;;;;;;;;;;;13.80;68.30;;;;;;5091821;28;19913;-70
2021/05/31 07:13:07;;;;;;;;;;;13.90;66.90;;;;;;5096721;28;19925;-69
2021/05/31 07:15:34;;;;;;;;;;;13.90;66.70;;;;;;5097033;28;19990;-68
2021/05/31 07:17:59;;;;;;;;;;;14.10;67.20;;;;;;5096481;28;20316;-69
2021/05/31 07:20:25;;;;;;;;;;;14.20;66.40;;;;;;5095171;28;19912;-69
2021/05/31 07:22:51;;;;;;;;;;;14.40;66.70;;;;;;5094316;28;19923;-69
2021/05/31 07:25:17;;;;;;;;;;;14.80;65.70;;;;;;5094860;28;19912;-70
2021/05/31 07:27:43;;;;;;;;;;;16.00;65.20;;;;;;5093111;28;20448;-70
2021/05/31 07:30:10;;;;;;;;;;;17.20;61.20;;;;;;5096926;28;19908;-70
2021/05/31 07:32:36;;;;;;;;;;;17.90;58.30;;;;;;5092916;28;19912;-70
2021/05/31 07:35:06;;;;;;;;;;;18.10;56.70;;;;;;5093983;28;20012;-70
2021/05/31 07:37:32;;;;;;;;;;;18.20;56.50;;;;;;5090693;28;19956;-70
2021/05/31 07:39:58;;;;;;;;;;;18.70;56.80;;;;;;5098765;28;19916;-70
2021/05/31 07:42:23;;;;;;;;;;;19.30;55.90;;;;;;5096237;28;20034;-69
2021/05/31 07:44:49;;;;;;;;;;;19.90;55.00;;;;;;5096688;28;19923;-71
2021/05/31 07:47:14;;;;;;;;;;;20.10;54.70;;;;;;5087051;28;20034;-71
2021/05/31 07:49:40;;;;;;;;;;;20.50;53.50;;;;;;5097518;28;20217;-69
2021/05/31 07:52:19;;;;;;;;;;;20.90;53.40;;;;;;5095393;28;19916;-71
2021/05/31 07:54:44;;;;;;;;;;;20.60;52.00;;;;;;5096192;28;19912;-70
2021/05/31 07:57:11;;;;;;;;;;;20.70;53.00;;;;;;5096555;28;19920;-70
2021/05/31 07:59:37;;;;;;;;;;;20.50;52.50;;;;;;5091521;28;19912;-70
2021/05/31 08:02:03;;;;;;;;;;;20.80;51.60;;;;;;5064333;28;19928;-69
2021/05/31 08:04:28;;;;;;;;;;;21.30;52.70;;;;;;5081414;28;19963;-69
2021/05/31 08:06:55;;;;;;;;;;;21.30;51.10;;;;;;5090983;28;19916;-69
2021/05/31 08:09:21;;;;;;;;;;;21.40;51.50;;;;;;5083103;28;20020;-70
2021/05/31 08:11:46;;;;;;;;;;;21.90;50.60;;;;;;5081818;28;20324;-70
2021/05/31 08:14:12;;;;;;;;;;;22.40;51.10;;;;;;5093737;28;20247;-69
2021/05/31 08:16:37;;;;;;;;;;;22.50;49.10;;;;;;5097253;28;20220;-70
2021/05/31 08:19:03;;;;;;;;;;;22.50;51.00;;;;;;5093798;28;19912;-69
2021/05/31 08:21:28;;;;;;;;;;;23.00;50.00;;;;;;5077421;28;19912;-70
2021/05/31 08:23:54;;;;;;;;;;;23.60;48.90;;;;;;5084541;28;19912;-70
2021/05/31 08:26:20;;;;;;;;;;;22.80;49.40;;;;;;5098941;28;19955;-70
2021/05/31 08:28:46;;;;;;;;;;;21.70;50.00;;;;;;5092881;28;19917;-70
2021/05/31 08:31:12;;;;;;;;;;;22.30;48.90;;;;;;5093179;28;19912;-70
2021/05/31 08:33:38;;;;;;;;;;;23.30;50.30;;;;;;5089713;28;19994;-70
2021/05/31 08:36:04;;;;;;;;;;;23.20;52.50;;;;;;5090519;28;19920;-70
2021/05/31 08:38:31;;;;;;;;;;;23.00;52.70;;;;;;5093119;28;20350;-70
2021/05/31 08:40:57;;;;;;;;;;;22.70;53.60;;;;;;5094236;28;19963;-70
2021/05/31 08:43:22;;;;;;;;;;;22.10;54.70;;;;;;5085998;28;19940;-69
2021/05/31 08:45:48;;;;;;;;;;;21.70;55.60;;;;;;5087202;28;20301;-70
2021/05/31 08:48:14;;;;;;;;;;;21.20;55.90;;;;;;5095159;28;19920;-70
2021/05/31 08:50:42;;;;;;;;;;;20.90;56.90;;;;;;5085016;28;19966;-70
2021/05/31 08:53:08;;;;;;;;;;;20.90;56.60;;;;;;5077990;28;19913;-69
2021/05/31 08:55:34;;;;;;;;;;;21.00;56.50;;;;;;5086733;28;20216;-69
2021/05/31 08:58:00;;;;;;;;;;;21.70;55.60;;;;;;5086145;28;20282;-69
2021/05/31 09:00:27;;;;;;;;;;;22.10;55.00;;;;;;5085419;28;19923;-69
2021/05/31 09:02:54;;;;;;;;;;;21.60;54.90;;;;;;5093024;28;19916;-70
2021/05/31 09:05:30;;;;;;;;;;;21.90;55.80;;;;;;5092198;28;19920;-71
2021/05/31 09:08:00;;;;;;;;;;;22.70;53.30;;;;;;5089455;28;19989;-70
2021/05/31 09:10:25;;;;;;;;;;;23.10;50.90;;;;;;5089219;28;20330;-70
2021/05/31 09:12:51;;;;;;;;;;;23.00;51.20;;;;;;5089958;28;19920;-70
2021/05/31 09:15:17;;;;;;;;;;;22.90;52.90;;;;;;5086100;28;19916;-71
2021/05/31 09:17:42;;;;;;;;;;;23.30;51.20;;;;;;5072115;28;19916;-70
2021/05/31 09:20:09;;;;;;;;;;;22.40;53.60;;;;;;5089927;28;19916;-70
2021/05/31 09:22:48;;;;;;;;;;;22.60;53.10;;;;;;5084526;28;19916;-71
2021/05/31 09:25:23;;;;;;;;;;;22.80;52.30;;;;;;5103279;28;19912;-70
2021/05/31 09:27:52;;;;;;;;;;;23.70;51.10;;;;;;5077462;28;20031;-70
2021/05/31 09:30:30;;;;;;;;;;;24.20;50.10;;;;;;5084410;28;19959;-70
2021/05/31 09:32:55;;;;;;;;;;;24.30;49.70;;;;;;5086999;28;19981;-70
2021/05/31 09:35:23;;;;;;;;;;;24.10;49.80;;;;;;5078779;28;20300;-69
2021/05/31 09:37:49;;;;;;;;;;;23.30;50.50;;;;;;5075064;28;19952;-69
2021/05/31 09:40:23;;;;;;;;;;;22.50;52.00;;;;;;5088692;28;20010;-70
2021/05/31 09:42:56;;;;;;;;;;;22.20;52.20;;;;;;5087480;28;19923;-70
2021/05/31 09:45:21;;;;;;;;;;;22.70;52.60;;;;;;5080512;28;20305;-70
2021/05/31 09:47:47;;;;;;;;;;;23.30;50.90;;;;;;5082835;28;19920;-70
2021/05/31 09:50:25;;;;;;;;;;;22.80;51.60;;;;;;5094246;28;19937;-70
2021/05/31 09:53:02;;;;;;;;;;;22.70;53.30;;;;;;5086903;28;19920;-70
2021/05/31 09:55:33;;;;;;;;;;;23.40;52.00;;;;;;5094439;28;19916;-70
2021/05/31 09:57:59;;;;;;;;;;;23.20;51.80;;;;;;5092921;28;19916;-70
2021/05/31 10:00:29;;;;;;;;;;;22.60;51.30;;;;;;5083122;28;20359;-70
2021/05/31 10:03:00;;;;;;;;;;;22.30;52.80;;;;;;5085320;28;19912;-70
2021/05/31 10:05:42;;;;;;;;;;;22.50;53.40;;;;;;5086930;28;19912;-70
2021/05/31 10:10:37;;;;;;;;;;;22.60;52.10;;;;;;5088670;28;19958;-70
2021/05/31 10:13:03;;;;;;;;;;;22.80;53.00;;;;;;5080617;28;19912;-70
2021/05/31 10:15:29;;;;;;;;;;;23.30;51.00;;;;;;5076244;28;19916;-69
2021/05/31 10:17:56;;;;;;;;;;;24.20;51.40;;;;;;5070330;28;19916;-70
2021/05/31 10:20:23;;;;;;;;;;;23.80;49.60;;;;;;5085897;28;19967;-70
2021/05/31 10:22:48;;;;;;;;;;;23.70;49.50;;;;;;5088807;28;19935;-71
2021/05/31 10:25:15;;;;;;;;;;;23.20;50.40;;;;;;5093628;28;19912;-70
2021/05/31 10:27:42;;;;;;;;;;;22.70;51.20;;;;;;5079648;28;19928;-70
2021/05/31 10:30:08;;;;;;;;;;;22.40;52.10;;;;;;5091757;28;19939;-70
2021/05/31 10:32:34;;;;;;;;;;;22.10;54.00;;;;;;5083151;28;20325;-70
2021/05/31 10:35:00;;;;;;;;;;;22.40;52.60;;;;;;5066996;28;20030;-70
2021/05/31 10:37:26;;;;;;;;;;;22.90;53.10;;;;;;5077799;28;19909;-71
2021/05/31 10:40:18;;;;;;;;;;;23.20;50.90;;;;;;5087258;28;19919;-71
2021/05/31 10:42:44;;;;;;;;;;;23.00;50.20;;;;;;5094758;28;19981;-70
2021/05/31 10:45:25;;;;;;;;;;;23.10;51.40;;;;;;5086232;28;19917;-70
2021/05/31 10:47:55;;;;;;;;;;;22.90;50.00;;;;;;5097311;28;19923;-71
2021/05/31 10:50:28;;;;;;;;;;;23.00;51.80;;;;;;5091974;28;19916;-70
2021/05/31 10:52:54;;;;;;;;;;;23.00;50.20;;;;;;5086447;28;20324;-70
2021/05/31 10:55:19;;;;;;;;;;;22.70;51.20;;;;;;5082726;28;19938;-70
2021/05/31 10:57:47;;;;;;;;;;;22.30;51.90;;;;;;5066390;28;19916;-70
2021/05/31 11:00:20;;;;;;;;;;;22.20;52.60;;;;;;5079295;28;20197;-71
2021/05/31 11:02:46;;;;;;;;;;;22.40;52.90;;;;;;5079929;28;19912;-70
2021/05/31 11:05:12;;;;;;;;;;;22.30;51.40;;;;;;5079706;28;20020;-70
2021/05/31 11:07:37;;;;;;;;;;;22.20;53.80;;;;;;5095057;28;20375;-70
2021/05/31 11:10:16;;;;;;;;;;;21.90;52.70;;;;;;5097734;28;19966;-70
2021/05/31 11:12:42;;;;;;;;;;;21.90;54.80;;;;;;5095705;28;19916;-70
2021/05/31 11:15:08;;;;;;;;;;;22.30;51.60;;;;;;5098097;28;19920;-70
2021/05/31 11:17:45;;;;;;;;;;;22.90;53.10;;;;;;5097252;28;19919;-70
2021/05/31 11:20:11;;;;;;;;;;;23.60;50.20;;;;;;5095862;28;19916;-71
2021/05/31 11:22:37;;;;;;;;;;;23.00;50.50;;;;;;5095429;28;19953;-70
2021/05/31 11:25:09;;;;;;;;;;;23.20;50.30;;;;;;5098675;28;19915;-70
2021/05/31 11:27:44;;;;;;;;;;;22.40;51.20;;;;;;5097070;28;20308;-70
2021/05/31 11:30:10;;;;;;;;;;;22.30;52.20;;;;;;5096698;28;20007;-70
2021/05/31 11:32:36;;;;;;;;;;;22.20;52.80;;;;;;5067729;28;19913;-70
2021/05/31 11:35:12;;;;;;;;;;;21.90;52.60;;;;;;5095976;28;19920;-70
2021/05/31 11:37:37;;;;;;;;;;;22.00;54.30;;;;;;5088551;28;19934;-70
2021/05/31 11:40:04;;;;;;;;;;;21.90;53.10;;;;;;5093996;28;19916;-70
2021/05/31 11:42:33;;;;;;;;;;;21.80;53.40;;;;;;5092497;28;19916;-70
2021/05/31 11:44:58;;;;;;;;;;;22.10;53.90;;;;;;5097746;28;19908;-70
2021/05/31 11:47:25;;;;;;;;;;;22.20;53.60;;;;;;5071200;28;20339;-69
2021/05/31 11:49:51;;;;;;;;;;;22.40;53.20;;;;;;5085855;28;19916;-69
2021/05/31 11:52:17;;;;;;;;;;;22.30;53.30;;;;;;5091354;28;19935;-70
2021/05/31 11:54:43;;;;;;;;;;;22.50;52.80;;;;;;5089364;28;20003;-69
2021/05/31 11:57:12;;;;;;;;;;;23.00;51.20;;;;;;5060407;28;19959;-69
2021/05/31 11:59:42;;;;;;;;;;;22.70;51.40;;;;;;5087791;28;20003;-71
2021/05/31 12:02:12;;;;;;;;;;;22.80;52.50;;;;;;5096014;28;19913;-71
2021/05/31 12:04:38;;;;;;;;;;;22.60;50.80;;;;;;5097748;28;19916;-71
2021/05/31 12:07:05;;;;;;;;;;;21.90;53.70;;;;;;5095927;28;20446;-71
2021/05/31 12:09:31;;;;;;;;;;;21.80;52.40;;;;;;5087668;28;19913;-70
2021/05/31 12:11:57;;;;;;;;;;;22.10;55.20;;;;;;5077276;28;19970;-71
2021/05/31 12:14:25;;;;;;;;;;;22.80;52.10;;;;;;5077156;28;19908;-71
2021/05/31 12:16:57;;;;;;;;;;;23.00;52.80;;;;;;5076966;28;20015;-71
2021/05/31 12:19:25;;;;;;;;;;;23.30;50.10;;;;;;5076904;28;19916;-71
2021/05/31 12:21:50;;;;;;;;;;;23.50;51.70;;;;;;5076040;28;19913;-71
2021/05/31 12:24:22;;;;;;;;;;;23.30;51.10;;;;;;5076862;28;20350;-71
2021/05/31 12:26:48;;;;;;;;;;;22.80;51.40;;;;;;5076452;28;19943;-70
2021/05/31 12:29:13;;;;;;;;;;;22.60;52.60;;;;;;5076992;28;20304;-70
2021/05/31 12:31:39;;;;;;;;;;;22.30;51.30;;;;;;5076939;28;19913;-71
2021/05/31 12:34:04;;;;;;;;;;;22.60;53.40;;;;;;5076976;28;19919;-70
2021/05/31 12:36:31;;;;;;;;;;;22.50;52.30;;;;;;5075100;28;19923;-70
2021/05/31 12:38:57;;;;;;;;;;;22.60;51.90;;;;;;5076426;28;19958;-70
2021/05/31 12:41:23;;;;;;;;;;;23.00;51.00;;;;;;5076531;28;20309;-70
2021/05/31 12:43:49;;;;;;;;;;;22.70;51.30;;;;;;5076238;28;19920;-71
2021/05/31 12:46:18;;;;;;;;;;;22.60;50.90;;;;;;5076340;28;19972;-70
2021/05/31 12:48:47;;;;;;;;;;;22.50;51.00;;;;;;5058752;28;20248;-70
2021/05/31 12:51:13;;;;;;;;;;;22.50;51.70;;;;;;5074651;28;20019;-70
2021/05/31 12:53:43;;;;;;;;;;;22.70;52.40;;;;;;5076656;28;19943;-71
2021/05/31 12:56:08;;;;;;;;;;;22.80;52.30;;;;;;5076472;28;19947;-71
2021/05/31 12:58:34;;;;;;;;;;;23.20;52.60;;;;;;5076426;28;19947;-71
2021/05/31 13:01:00;;;;;;;;;;;23.80;52.60;;;;;;5058460;28;19913;-71
2021/05/31 13:03:32;;;;;;;;;;;24.40;51.00;;;;;;5076175;28;20416;-71
2021/05/31 13:05:57;;;;;;;;;;;24.90;50.70;;;;;;5075124;28;19943;-71
2021/05/31 13:08:23;;;;;;;;;;;25.10;51.00;;;;;;5076804;28;20341;-71
2021/05/31 13:10:52;;;;;;;;;;;24.60;51.70;;;;;;5075488;28;19977;-71
2021/05/31 13:13:20;;;;;;;;;;;25.10;49.40;;;;;;5076325;28;19915;-71
2021/05/31 13:15:47;;;;;;;;;;;24.60;48.60;;;;;;5089910;28;20015;-71
2021/05/31 13:18:16;;;;;;;;;;;24.80;50.90;;;;;;5095813;28;20205;-71
2021/05/31 13:20:41;;;;;;;;;;;25.40;48.70;;;;;;5092367;28;20022;-71
2021/05/31 13:23:11;;;;;;;;;;;25.50;46.60;;;;;;5076114;28;19908;-71
2021/05/31 13:25:36;;;;;;;;;;;25.40;50.30;;;;;;5076153;28;20003;-71
2021/05/31 13:28:08;;;;;;;;;;;25.40;48.70;;;;;;5058181;28;20297;-70
2021/05/31 13:30:35;;;;;;;;;;;26.10;47.70;;;;;;5077092;28;19908;-70
2021/05/31 13:33:02;;;;;;;;;;;26.50;45.60;;;;;;5096272;28;19908;-70
2021/05/31 13:35:27;;;;;;;;;;;26.00;48.70;;;;;;5094480;28;20301;-70
2021/05/31 13:37:56;;;;;;;;;;;26.30;46.90;;;;;;5095818;28;19957;-70
2021/05/31 13:40:32;;;;;;;;;;;26.60;46.70;;;;;;5078268;28;20190;-70
2021/05/31 13:43:06;;;;;;;;;;;26.50;47.00;;;;;;5075936;28;19912;-71
2021/05/31 13:45:36;;;;;;;;;;;26.60;44.80;;;;;;5058244;28;19908;-70
2021/05/31 13:48:03;;;;;;;;;;;26.10;45.40;;;;;;5075831;28;19919;-71
2021/05/31 13:50:29;;;;;;;;;;;25.80;45.80;;;;;;5073494;28;20213;-70
2021/05/31 13:52:55;;;;;;;;;;;25.60;43.70;;;;;;5096086;28;19915;-70
2021/05/31 13:55:21;;;;;;;;;;;25.70;44.00;;;;;;5092623;28;19916;-71
2021/05/31 13:57:48;;;;;;;;;;;26.30;47.20;;;;;;5095024;28;19964;-71
2021/05/31 14:00:14;;;;;;;;;;;26.40;46.20;;;;;;5096431;28;20317;-71
2021/05/31 14:02:40;;;;;;;;;;;26.90;46.20;;;;;;5099342;28;19912;-71
2021/05/31 14:05:06;;;;;;;;;;;26.00;44.00;;;;;;5100041;28;19915;-70
2021/05/31 14:07:32;;;;;;;;;;;25.40;47.00;;;;;;5096771;28;19965;-70
2021/05/31 14:09:59;;;;;;;;;;;24.70;45.30;;;;;;5081635;28;19916;-70
2021/05/31 14:12:24;;;;;;;;;;;24.70;46.40;;;;;;5083268;28;19912;-71
2021/05/31 14:14:50;;;;;;;;;;;25.10;48.80;;;;;;5087223;28;19951;-70
2021/05/31 14:17:15;;;;;;;;;;;26.10;46.50;;;;;;5084339;28;19923;-70
2021/05/31 14:19:41;;;;;;;;;;;25.80;45.50;;;;;;5090124;28;20619;-70
2021/05/31 14:22:07;;;;;;;;;;;26.30;48.60;;;;;;5091712;28;19912;-70
2021/05/31 14:24:32;;;;;;;;;;;26.40;44.20;;;;;;5076225;28;19913;-70
2021/05/31 14:26:59;;;;;;;;;;;26.70;44.00;;;;;;5096345;28;19927;-70
2021/05/31 14:29:25;;;;;;;;;;;27.10;45.30;;;;;;5092097;28;19920;-71
2021/05/31 14:31:50;;;;;;;;;;;26.80;43.70;;;;;;5088245;28;20030;-71
2021/05/31 14:34:16;;;;;;;;;;;27.00;44.30;;;;;;5095331;28;20216;-70
2021/05/31 14:36:44;;;;;;;;;;;27.20;45.70;;;;;;5104340;28;20005;-71
2021/05/31 14:39:10;;;;;;;;;;;27.50;44.60;;;;;;5094474;28;20248;-71